createdAt,value
2019-02-12T00:00:55.837Z,101590.59
2019-02-12T00:03:22.944Z,101593.23
2019-02-12T00:05:50.058Z,101580.09
2019-02-12T00:08:17.261Z,101582.69
2019-02-12T00:10:44.421Z,101596.61
2019-02-12T00:13:11.981Z,101599.77
2019-02-12T00:15:39.155Z,101588.77
2019-02-12T00:18:06.260Z,101593.27
2019-02-12T00:20:34.842Z,101605.67
2019-02-12T00:23:02.445Z,101601.42
2019-02-12T00:25:29.753Z,101598.86
2019-02-12T00:27:56.855Z,101601.00
2019-02-12T00:30:24.024Z,101595.83
2019-02-12T00:32:51.144Z,101591.09
2019-02-12T00:35:18.256Z,101589.19
2019-02-12T00:37:45.830Z,101587.08
2019-02-12T00:40:13.348Z,101579.66
2019-02-12T00:42:40.450Z,101585.64
2019-02-12T00:45:08.010Z,101583.38
2019-02-12T00:47:35.110Z,101587.78
2019-02-12T00:50:02.229Z,101583.45
2019-02-12T00:52:29.444Z,101600.36
2019-02-12T00:54:56.554Z,101598.60
2019-02-12T00:57:24.044Z,101599.55
2019-02-12T00:59:51.619Z,101600.89
2019-02-12T01:02:18.952Z,101597.38
2019-02-12T01:04:46.059Z,101600.05
2019-02-12T01:07:13.240Z,101591.22
2019-02-12T01:09:40.335Z,101604.99
2019-02-12T01:12:07.457Z,101610.50
2019-02-12T01:14:34.690Z,101604.73
2019-02-12T01:17:01.792Z,101602.09
2019-02-12T01:19:29.318Z,101618.91
2019-02-12T01:21:56.879Z,101609.73
2019-02-12T01:24:23.991Z,101607.97
2019-02-12T01:26:51.446Z,101619.55
2019-02-12T01:29:18.635Z,101642.94
2019-02-12T01:31:45.753Z,101629.48
2019-02-12T01:34:12.890Z,101633.30
2019-02-12T01:36:40.126Z,101635.91
2019-02-12T01:39:50.208Z,101643.37
2019-02-12T01:42:17.423Z,101646.42
2019-02-12T01:44:44.576Z,101654.52
2019-02-12T01:47:11.718Z,101644.95
2019-02-12T01:49:39.417Z,101653.00
2019-02-12T01:52:07.020Z,101656.19
2019-02-12T01:54:34.579Z,101657.27
2019-02-12T01:57:01.785Z,101652.09
2019-02-12T01:59:28.916Z,101647.90
2019-02-12T02:01:56.045Z,101650.08
2019-02-12T02:04:23.229Z,101650.23
2019-02-12T02:06:50.316Z,101648.28
2019-02-12T04:07:01.528Z,101757.34
2019-02-12T04:09:28.658Z,101760.23
2019-02-12T04:11:55.771Z,101757.77
2019-02-12T04:14:23.712Z,101767.46
2019-02-12T04:16:50.823Z,101780.38
2019-02-12T04:19:17.967Z,101758.78
2019-02-12T04:21:45.510Z,101755.42
2019-02-12T04:24:12.611Z,101751.12
2019-02-12T04:26:40.178Z,101755.22
2019-02-12T04:29:07.364Z,101757.45
2019-02-12T04:31:34.936Z,101751.33
2019-02-12T04:34:02.072Z,101759.67
2019-02-12T04:36:29.251Z,101747.93
2019-02-12T04:38:56.765Z,101751.38
2019-02-12T04:41:24.111Z,101747.09
2019-02-12T04:43:51.311Z,101744.91
2019-02-12T04:46:18.423Z,101757.62
2019-02-12T04:48:45.894Z,101768.35
2019-02-12T04:51:13.459Z,101772.34
2019-02-12T04:53:41.424Z,101782.73
2019-02-12T04:56:08.835Z,101772.67
2019-02-12T04:58:35.990Z,101776.07
2019-02-12T05:01:03.097Z,101768.39
2019-02-12T05:03:30.477Z,101767.55
2019-02-12T05:05:57.705Z,101769.52
2019-02-12T05:08:24.876Z,101775.10
2019-02-12T05:11:11.439Z,101779.00
2019-02-12T05:13:43.432Z,101771.03
2019-02-12T05:16:11.016Z,101784.45
2019-02-12T05:18:38.156Z,101786.63
2019-02-12T05:21:24.727Z,101791.78
2019-02-12T05:23:51.886Z,101800.42
2019-02-12T05:26:19.487Z,101804.14
2019-02-12T05:28:46.595Z,101803.30
2019-02-12T05:31:13.800Z,101802.00
2019-02-12T05:33:40.887Z,101798.02
2019-02-12T05:36:08.070Z,101794.02
2019-02-12T05:38:35.237Z,101788.37
2019-02-12T05:41:02.327Z,101790.91
2019-02-12T05:43:29.546Z,101784.00
2019-02-12T05:45:56.853Z,101783.63
2019-02-12T05:48:23.974Z,101797.47
2019-02-12T05:50:51.067Z,101794.02
2019-02-12T05:53:18.732Z,101793.66
2019-02-12T05:55:46.219Z,101807.30
2019-02-12T05:58:13.697Z,101825.63
2019-02-12T06:00:40.838Z,101831.70
2019-02-12T06:03:08.316Z,101844.47
2019-02-12T06:05:35.842Z,101839.94
2019-02-12T06:08:03.043Z,101840.10
2019-02-12T06:10:30.212Z,101854.40
2019-02-12T06:12:57.759Z,101865.80
2019-02-12T06:15:24.934Z,101866.85
2019-02-12T06:17:52.031Z,101873.14
2019-02-12T06:20:19.590Z,101876.22
2019-02-12T06:22:47.096Z,101881.41
2019-02-12T06:25:14.212Z,101895.49
2019-02-12T06:27:41.327Z,101899.39
2019-02-12T06:30:08.651Z,101906.86
2019-02-12T06:32:35.752Z,101894.24
2019-02-12T06:35:03.021Z,101906.66
2019-02-12T06:37:30.226Z,101903.43
2019-02-12T06:39:57.342Z,101917.25
2019-02-12T06:42:25.324Z,101916.00
2019-02-12T06:44:52.544Z,101924.89
2019-02-12T06:47:39.471Z,101932.94
2019-02-12T06:50:07.827Z,101936.47
2019-02-12T06:52:34.997Z,101942.77
2019-02-12T06:55:02.420Z,101945.14
2019-02-12T06:57:29.590Z,101949.28
2019-02-12T06:59:56.691Z,101956.03
2019-02-12T07:03:02.785Z,101952.19
2019-02-12T07:05:29.881Z,101961.47
2019-02-12T07:11:48.089Z,101973.64
2019-02-12T07:14:39.744Z,101966.82
2019-02-12T07:17:46.289Z,101963.39
2019-02-12T07:20:52.498Z,101977.42
2019-02-12T07:23:58.626Z,101984.80
2019-02-12T07:27:04.908Z,101982.11
2019-02-12T07:30:11.009Z,101999.90
2019-02-12T07:33:16.886Z,101994.41
2019-02-12T07:36:22.999Z,102007.59
2019-02-12T07:39:29.023Z,102010.44
2019-02-12T07:42:35.147Z,102001.80
2019-02-12T07:45:41.142Z,101999.00
2019-02-12T07:48:31.447Z,102005.27
2019-02-12T07:51:37.786Z,102012.87
2019-02-12T07:54:37.194Z,102012.13
2019-02-12T07:57:43.211Z,102021.70
2019-02-12T08:00:49.427Z,102017.50
2019-02-12T08:03:55.513Z,102022.69
2019-02-12T08:06:51.122Z,102027.59
2019-02-12T08:09:58.505Z,102028.77
2019-02-12T08:15:32.341Z,102046.51
2019-02-12T08:18:40.546Z,102050.30
2019-02-12T08:22:20.997Z,102057.09
2019-02-12T08:25:27.212Z,102065.59
2019-02-12T08:28:28.972Z,102065.48
2019-02-12T08:31:36.069Z,102075.05
2019-02-12T08:34:42.285Z,102074.69
2019-02-12T08:37:48.361Z,102081.03
2019-02-12T08:40:54.428Z,102086.34
2019-02-12T08:43:45.966Z,102088.26
2019-02-12T08:46:53.211Z,102079.97
2019-02-12T08:49:59.542Z,102088.50
2019-02-12T08:53:05.538Z,102095.66
2019-02-12T08:56:11.658Z,102092.59
2019-02-12T08:58:50.216Z,102095.50
2019-02-12T09:01:48.416Z,102105.13
2019-02-12T09:04:54.426Z,102098.48
2019-02-12T09:08:00.506Z,102109.36
2019-02-12T09:11:06.997Z,102120.58
2019-02-12T09:13:59.296Z,102122.09
2019-02-12T09:17:05.665Z,102132.88
2019-02-12T09:20:11.727Z,102134.52
2019-02-12T09:23:17.939Z,102142.25
2019-02-12T09:26:07.771Z,102144.19
2019-02-12T09:29:02.060Z,102144.44
2019-02-12T09:32:08.122Z,102151.05
2019-02-12T09:35:14.200Z,102152.67
2019-02-12T09:38:20.278Z,102153.89
2019-02-12T09:41:26.831Z,102162.73
2019-02-12T09:44:33.233Z,102170.22
2019-02-12T09:47:39.135Z,102169.48
2019-02-12T09:50:45.278Z,102183.73
2019-02-12T09:53:45.080Z,102186.69
2019-02-12T09:56:37.585Z,102182.50
2019-02-12T09:59:27.231Z,102198.28
2019-02-12T10:04:17.246Z,102200.30
2019-02-12T10:07:23.326Z,102202.27
2019-02-12T10:10:29.825Z,102217.92
2019-02-12T10:13:19.428Z,102227.30
2019-02-12T10:16:25.682Z,102221.05
2019-02-12T10:19:32.159Z,102219.28
2019-02-12T10:22:23.995Z,102226.63
2019-02-12T10:25:22.495Z,102219.36
2019-02-12T10:28:29.498Z,102220.66
2019-02-12T10:31:35.508Z,102230.83
2019-02-12T10:34:03.114Z,102230.20
2019-02-12T10:36:30.638Z,102244.52
2019-02-12T10:38:57.844Z,102239.80
2019-02-12T10:41:25.022Z,102250.22
2019-02-12T10:43:52.119Z,102237.55
2019-02-12T10:46:20.287Z,102239.39
2019-02-12T10:48:47.825Z,102241.38
2019-02-12T10:51:15.153Z,102243.30
2019-02-12T10:53:42.637Z,102233.67
2019-02-12T10:56:29.255Z,102239.37
2019-02-12T10:58:56.532Z,102242.16
2019-02-12T11:01:23.953Z,102237.77
2019-02-12T11:03:51.127Z,102233.36
2019-02-12T11:06:18.221Z,102226.25
2019-02-12T11:08:45.299Z,102223.64
2019-02-12T11:11:12.953Z,102231.31
2019-02-12T11:13:40.103Z,102236.95
2019-02-12T11:16:07.185Z,102237.27
2019-02-12T11:18:47.398Z,102229.13
2019-02-12T11:21:15.075Z,102226.30
2019-02-12T11:23:42.194Z,102224.80
2019-02-12T11:26:09.789Z,102235.19
2019-02-12T11:28:36.927Z,102241.49
2019-02-12T11:31:04.132Z,102251.63
2019-02-12T11:33:31.750Z,102235.75
2019-02-12T11:35:59.507Z,102233.19
2019-02-12T11:38:27.234Z,102238.02
2019-02-12T11:40:54.380Z,102242.56
2019-02-12T11:43:21.891Z,102244.38
2019-02-12T11:45:48.964Z,102243.17
2019-02-12T11:48:17.919Z,102252.05
2019-02-12T11:50:45.148Z,102258.75
2019-02-12T11:53:12.271Z,102258.11
2019-02-12T11:55:39.060Z,102258.91
2019-02-12T11:58:05.952Z,102252.17
2019-02-12T12:00:52.440Z,102251.76
2019-02-12T12:03:19.877Z,102259.93
2019-02-12T12:05:46.977Z,102259.70
2019-02-12T12:08:14.217Z,102262.59
2019-02-12T12:10:41.324Z,102275.50
2019-02-12T12:13:08.913Z,102262.12
2019-02-12T12:15:36.498Z,102270.03
2019-02-12T12:18:03.992Z,102276.16
2019-02-12T12:20:44.024Z,102260.84
2019-02-12T12:23:11.342Z,102257.50
2019-02-12T12:25:38.093Z,102265.95
2019-02-12T12:28:04.903Z,102268.23
2019-02-12T12:30:31.647Z,102271.86
2019-02-12T12:32:58.527Z,102277.87
2019-02-12T12:35:25.368Z,102288.09
2019-02-12T12:37:52.006Z,102277.87
2019-02-12T12:40:39.312Z,102276.58
2019-02-12T12:43:06.866Z,102282.85
2019-02-12T12:45:33.964Z,102286.38
2019-02-12T12:48:02.582Z,102289.56
2019-02-12T12:50:29.676Z,102287.33
2019-02-12T12:52:56.812Z,102307.79
2019-02-12T12:55:25.431Z,102312.31
2019-02-12T12:57:53.316Z,102318.64
2019-02-12T13:00:40.140Z,102315.03
2019-02-12T13:03:07.274Z,102316.77
2019-02-12T13:05:34.834Z,102323.41
2019-02-12T13:08:02.446Z,102316.09
2019-02-12T13:10:29.596Z,102325.77
2019-02-12T13:12:56.886Z,102319.81
2019-02-12T13:15:24.077Z,102311.97
2019-02-12T13:17:51.169Z,102317.38
2019-02-12T13:20:18.267Z,102328.45
2019-02-12T13:22:58.447Z,102327.61
2019-02-12T13:25:26.364Z,102336.86
2019-02-12T13:27:53.486Z,102327.80
2019-02-12T13:30:20.812Z,102330.92
2019-02-12T13:32:48.244Z,102337.48
2019-02-12T13:35:15.616Z,102341.06
2019-02-12T13:37:43.093Z,102341.20
2019-02-12T13:40:10.715Z,102349.48
2019-02-12T13:42:37.807Z,102343.30
2019-02-12T13:45:06.903Z,102343.13
2019-02-12T13:47:34.005Z,102341.36
2019-02-12T13:50:02.116Z,102345.61
2019-02-12T13:52:29.343Z,102348.84
2019-02-12T13:55:17.674Z,102350.92
2019-02-12T13:57:45.666Z,102359.89
2019-02-12T14:00:13.304Z,102354.50
2019-02-12T14:02:40.394Z,102367.81
2019-02-12T14:05:10.567Z,102362.89
2019-02-12T14:07:38.347Z,102369.83
2019-02-12T14:10:06.094Z,102363.26
2019-02-12T14:12:33.417Z,102360.23
2019-02-12T14:15:01.826Z,102367.39
2019-02-12T14:17:29.323Z,102363.22
2019-02-12T14:19:57.113Z,102361.87
2019-02-12T14:22:26.001Z,102368.13
2019-02-12T14:24:57.774Z,102370.41
2019-02-12T14:27:45.122Z,102366.83
2019-02-12T14:30:13.193Z,102375.25
2019-02-12T14:32:52.721Z,102373.78
2019-02-12T14:35:20.231Z,102381.38
2019-02-12T14:37:47.710Z,102380.07
2019-02-12T14:40:15.240Z,102384.58
2019-02-12T14:42:42.615Z,102388.48
2019-02-12T14:45:11.342Z,102394.55
2019-02-12T14:47:39.110Z,102402.47
2019-02-12T14:50:07.436Z,102405.50
2019-02-12T14:52:35.045Z,102408.23
2019-02-12T14:55:02.638Z,102403.44
2019-02-12T14:57:29.736Z,102417.56
2019-02-12T14:59:56.845Z,102417.66
2019-02-12T15:02:24.767Z,102426.98
2019-02-12T15:05:00.262Z,102420.92
2019-02-12T15:07:41.570Z,102420.75
2019-02-12T15:10:09.712Z,102419.20
2019-02-12T15:12:36.823Z,102417.06
2019-02-12T15:15:04.362Z,102427.49
2019-02-12T15:17:31.763Z,102428.81
2019-02-12T15:19:58.865Z,102430.44
2019-02-12T15:22:26.062Z,102431.55
2019-02-12T15:24:53.189Z,102437.23
2019-02-12T15:27:21.000Z,102433.88
2019-02-12T15:29:48.452Z,102433.04
2019-02-12T15:32:15.556Z,102434.77
2019-02-12T15:34:43.027Z,102440.55
2019-02-12T15:37:10.461Z,102437.27
2019-02-12T15:39:37.774Z,102434.62
2019-02-12T15:42:04.973Z,102435.56
2019-02-12T15:44:32.303Z,102439.01
2019-02-12T15:47:00.319Z,102444.25
2019-02-12T15:49:46.889Z,102444.34
2019-02-12T15:52:15.540Z,102444.98
2019-02-12T15:54:45.245Z,102444.09
2019-02-12T15:57:12.348Z,102441.45
2019-02-12T15:59:38.969Z,102447.72
2019-02-12T16:02:06.146Z,102439.33
2019-02-12T16:04:33.044Z,102441.05
2019-02-12T16:07:01.538Z,102439.49
2019-02-12T16:09:28.857Z,102442.98
2019-02-12T16:11:56.451Z,102446.27
2019-02-12T16:14:23.569Z,102452.66
2019-02-12T16:16:52.523Z,102451.97
2019-02-12T16:19:19.751Z,102461.44
2019-02-12T16:21:46.876Z,102458.02
2019-02-12T16:24:14.374Z,102459.21
2019-02-12T16:26:41.980Z,102462.52
2019-02-12T16:29:09.090Z,102465.77
2019-02-12T16:31:36.909Z,102467.28
2019-02-12T16:34:04.264Z,102469.28
2019-02-12T16:36:32.023Z,102475.42
2019-02-12T16:38:59.196Z,102469.59
2019-02-12T16:41:26.776Z,102471.42
2019-02-12T16:43:53.875Z,102472.81
2019-02-12T16:46:23.245Z,102478.13
2019-02-12T16:48:50.573Z,102490.64
2019-02-12T16:51:17.696Z,102496.27
2019-02-12T16:53:44.799Z,102501.91
2019-02-12T16:56:12.162Z,102499.66
2019-02-12T16:58:40.339Z,102504.59
2019-02-12T17:01:08.462Z,102512.73
2019-02-12T17:03:38.168Z,102505.42
2019-02-12T17:06:06.742Z,102513.56
2019-02-12T17:08:34.913Z,102513.50
2019-02-12T17:11:02.879Z,102513.98
2019-02-12T17:13:29.953Z,102520.73
2019-02-12T17:15:56.594Z,102524.35
2019-02-12T17:18:23.422Z,102522.32
2019-02-12T17:20:50.164Z,102527.86
2019-02-12T17:23:17.700Z,102535.98
2019-02-12T17:25:44.743Z,102536.03
2019-02-12T17:28:31.308Z,102530.88
2019-02-12T17:31:01.578Z,102540.16
2019-02-12T17:33:28.723Z,102544.87
2019-02-12T17:35:55.446Z,102545.31
2019-02-12T17:38:35.268Z,102551.20
2019-02-12T17:41:02.757Z,102555.96
2019-02-12T17:43:29.846Z,102556.61
2019-02-12T17:45:57.110Z,102562.42
2019-02-12T17:48:24.214Z,102552.94
2019-02-12T17:50:51.716Z,102560.59
2019-02-12T17:53:19.132Z,102559.05
2019-02-12T17:55:46.630Z,102568.88
2019-02-12T17:58:14.289Z,102561.67
2019-02-12T18:00:43.696Z,102566.41
2019-02-12T18:03:10.994Z,102569.89
2019-02-12T18:05:38.207Z,102570.59
2019-02-12T18:08:05.353Z,102568.49
2019-02-12T18:10:32.804Z,102568.72
2019-02-12T18:13:00.089Z,102569.47
2019-02-12T18:15:27.463Z,102567.51
2019-02-12T18:17:54.930Z,102570.98
2019-02-12T18:20:26.510Z,102573.11
2019-02-12T18:22:51.132Z,102581.11
2019-02-12T18:25:18.593Z,102573.59
2019-02-12T18:27:45.716Z,102571.59
2019-02-12T18:30:13.810Z,102571.09
2019-02-12T18:32:41.363Z,102573.34
2019-02-12T18:35:08.507Z,102568.70
2019-02-12T18:37:35.670Z,102569.36
2019-02-12T18:40:15.905Z,102575.02
2019-02-12T18:42:43.412Z,102571.92
2019-02-12T18:45:12.111Z,102575.89
2019-02-12T18:47:39.221Z,102574.22
2019-02-12T18:50:07.497Z,102580.02
2019-02-12T18:52:35.878Z,102578.85
2019-02-12T18:55:03.340Z,102579.80
2019-02-12T18:57:30.966Z,102588.22
2019-02-12T18:59:58.427Z,102589.75
2019-02-12T19:02:25.609Z,102588.59
2019-02-12T19:04:52.767Z,102594.36
2019-02-12T19:07:20.246Z,102592.34
2019-02-12T19:09:47.720Z,102599.73
2019-02-12T19:12:14.938Z,102599.41
2019-02-12T19:14:42.177Z,102595.64
2019-02-12T19:17:09.286Z,102596.09
2019-02-12T19:19:36.514Z,102602.02
2019-02-12T19:22:03.619Z,102602.42
2019-02-12T19:24:31.324Z,102596.28
2019-02-12T19:26:58.468Z,102596.35
2019-02-12T19:29:25.531Z,102605.57
2019-02-12T19:31:59.151Z,102604.27
2019-02-12T19:34:21.890Z,102606.64
2019-02-12T19:36:49.469Z,102604.59
2019-02-12T19:39:16.778Z,102610.27
2019-02-12T19:41:57.042Z,102612.97
2019-02-12T19:44:24.469Z,102616.94
2019-02-12T19:46:51.565Z,102615.16
2019-02-12T19:49:19.080Z,102614.81
2019-02-12T19:51:47.186Z,102606.70
2019-02-12T19:54:15.251Z,102604.44
2019-02-12T19:56:42.864Z,102606.30
2019-02-12T19:59:10.219Z,102606.02
2019-02-12T20:01:37.806Z,102603.58
2019-02-12T20:04:04.954Z,102605.58
2019-02-12T20:06:32.144Z,102600.99
2019-02-12T20:08:59.252Z,102605.84
2019-02-12T20:11:26.428Z,102606.98
2019-02-12T20:13:54.038Z,102612.73
2019-02-12T20:16:21.893Z,102619.84
2019-02-12T20:18:49.122Z,102627.48
2019-02-12T20:21:16.221Z,102629.33
2019-02-12T20:23:43.753Z,102619.15
2019-02-12T20:26:10.940Z,102619.84
2019-02-12T20:28:38.022Z,102623.81
2019-02-12T20:31:05.603Z,102625.30
2019-02-12T20:33:32.760Z,102628.51
2019-02-12T20:36:00.306Z,102619.84
2019-02-12T20:38:28.464Z,102616.63
2019-02-12T20:40:55.742Z,102619.29
2019-02-12T20:43:22.912Z,102621.62
2019-02-12T20:45:50.196Z,102618.55
2019-02-12T20:48:18.480Z,102626.33
2019-02-12T20:50:45.976Z,102623.11
2019-02-12T20:53:13.096Z,102624.41
2019-02-12T20:55:40.786Z,102626.19
2019-02-12T20:58:07.875Z,102630.14
2019-02-12T21:00:35.362Z,102630.81
2019-02-12T21:03:02.529Z,102627.55
2019-02-12T21:05:29.643Z,102625.22
2019-02-12T21:07:56.930Z,102623.36
2019-02-12T21:10:24.225Z,102620.77
2019-02-12T21:12:51.630Z,102621.05
2019-02-12T21:15:19.038Z,102619.78
2019-02-12T21:18:07.246Z,102622.45
2019-02-12T21:20:34.449Z,102619.28
2019-02-12T21:23:01.295Z,102624.41
2019-02-12T21:25:28.789Z,102617.28
2019-02-12T21:27:55.679Z,102618.44
2019-02-12T21:30:22.436Z,102611.12
2019-02-12T21:32:49.374Z,102612.73
2019-02-12T21:35:16.104Z,102613.80
2019-02-12T21:37:43.000Z,102613.53
2019-02-12T21:40:12.626Z,102617.97
2019-02-12T21:42:39.669Z,102608.23
2019-02-12T21:45:20.005Z,102610.35
2019-02-12T21:47:47.141Z,102618.20
2019-02-12T21:50:14.261Z,102613.05
2019-02-12T21:52:41.651Z,102618.34
2019-02-12T21:55:08.935Z,102614.01
2019-02-12T21:57:36.399Z,102614.31
2019-02-12T22:00:44.589Z,102619.92
2019-02-12T22:03:31.180Z,102617.42
2019-02-12T22:05:58.760Z,102621.15
2019-02-12T22:08:45.652Z,102619.81
2019-02-12T22:11:12.796Z,102619.92
2019-02-12T22:13:40.006Z,102613.50
2019-02-12T22:16:07.548Z,102606.25
2019-02-12T22:18:34.770Z,102612.30
2019-02-12T22:21:02.051Z,102602.45
2019-02-12T22:23:29.174Z,102613.48
2019-02-12T22:25:56.795Z,102616.69
2019-02-12T22:28:23.943Z,102612.68
2019-02-12T22:30:51.473Z,102618.93
2019-02-12T22:33:18.656Z,102623.02
2019-02-12T22:35:45.768Z,102625.91
2019-02-12T22:38:33.095Z,102629.33
2019-02-12T22:41:00.220Z,102626.48
2019-02-12T22:43:28.019Z,102631.67
2019-02-12T22:45:55.239Z,102628.50
2019-02-12T22:48:22.334Z,102627.77
2019-02-12T22:50:50.274Z,102617.38
2019-02-12T22:53:17.401Z,102618.17
2019-02-12T22:55:44.832Z,102626.08
2019-02-12T22:58:11.929Z,102618.59
2019-02-12T23:01:01.537Z,102621.20
2019-02-12T23:03:28.269Z,102622.13
2019-02-12T23:05:55.015Z,102618.86
2019-02-12T23:08:22.110Z,102611.59
2019-02-12T23:10:49.205Z,102619.95
2019-02-12T23:13:16.110Z,102621.66
2019-02-12T23:15:42.956Z,102615.15
2019-02-12T23:18:09.788Z,102621.52
2019-02-12T23:20:36.530Z,102609.45
2019-02-12T23:23:03.334Z,102614.51
2019-02-12T23:25:30.771Z,102610.48
2019-02-12T23:27:57.923Z,102610.39
2019-02-12T23:30:25.135Z,102607.09
2019-02-12T23:32:51.973Z,102601.11
2019-02-12T23:35:18.719Z,102601.38
2019-02-12T23:37:45.923Z,102600.55
2019-02-12T23:40:12.669Z,102604.53
2019-02-12T23:42:39.300Z,102608.20
2019-02-12T23:45:06.288Z,102607.80
2019-02-12T23:47:46.177Z,102602.24
2019-02-12T23:50:13.337Z,102612.91
2019-02-12T23:52:40.445Z,102608.86
2019-02-12T23:55:07.565Z,102614.61
2019-02-12T23:57:35.174Z,102610.23
